Time;durP1;ratioP1;P1;durP2;ratioP2;P2;SDS_P1;SDS_P2;PMS_P1;PMS_P2;Temp;Humidity;BMP_temperature;BMP_pressure;BME280_temperature;BME280_humidity;BME280_pressure;Samples;Min_cycle;Max_cycle;Signal;HPM_P1;HPM_P2
2022/12/03 00:02:14;;;;;;;63.13;16.73;;;;;;;0.99;100.00;97374.63;5028053;28;20041;-63
2022/12/03 00:04:41;;;;;;;59.65;15.77;;;;;;;0.94;100.00;97379.66;5028294;28;20045;-62
2022/12/03 00:07:08;;;;;;;42.90;17.58;;;;;;;0.96;100.00;97378.47;5022621;28;20092;-62
2022/12/03 00:09:34;;;;;;;36.15;15.27;;;;;;;0.93;100.00;97378.88;5007279;28;20042;-61
2022/12/03 00:12:01;;;;;;;40.58;16.67;;;;;;;0.94;100.00;97375.16;5026628;28;20555;-62
2022/12/03 00:14:27;;;;;;;37.30;16.58;;;;;;;0.97;100.00;97374.81;5027366;28;20464;-63
2022/12/03 00:16:53;;;;;;;39.40;16.25;;;;;;;1.02;100.00;97380.38;5028575;28;20132;-62
2022/12/03 00:19:20;;;;;;;33.38;15.88;;;;;;;1.08;100.00;97375.28;5019891;28;20528;-62
2022/12/03 00:21:46;;;;;;;32.50;15.77;;;;;;;1.09;100.00;97377.78;5026798;28;20443;-62
2022/12/03 00:24:13;;;;;;;35.40;17.08;;;;;;;1.12;100.00;97374.75;5027770;28;20661;-62
2022/12/03 00:26:39;;;;;;;35.50;17.48;;;;;;;1.02;100.00;97371.53;5027388;28;20046;-62
2022/12/03 00:29:06;;;;;;;35.85;16.50;;;;;;;1.05;100.00;97376.50;5026583;28;20051;-62
2022/12/03 00:31:32;;;;;;;36.70;15.65;;;;;;;1.04;100.00;97374.88;5027385;28;20056;-61
2022/12/03 00:33:59;;;;;;;36.90;15.98;;;;;;;1.09;100.00;97374.28;5027984;28;20045;-63
2022/12/03 00:36:26;;;;;;;36.75;17.27;;;;;;;1.06;100.00;97372.81;5027517;28;20106;-62
2022/12/03 00:38:52;;;;;;;38.00;16.45;;;;;;;1.01;100.00;97373.41;5008412;28;20050;-62
2022/12/03 00:41:19;;;;;;;29.67;14.93;;;;;;;1.06;100.00;97366.69;5013869;28;20033;-63
2022/12/03 00:43:45;;;;;;;33.67;16.98;;;;;;;1.06;100.00;97378.16;5027752;28;20045;-62
2022/12/03 00:46:12;;;;;;;34.05;17.25;;;;;;;1.02;100.00;97363.53;5027704;28;20103;-62
2022/12/03 00:48:45;;;;;;;33.60;15.65;;;;;;;1.07;100.00;97365.66;5027543;28;20068;-62
2022/12/03 00:51:11;;;;;;;34.30;15.73;;;;;;;1.07;100.00;97365.66;5027159;28;20132;-63
2022/12/03 00:53:38;;;;;;;35.60;16.27;;;;;;;1.09;100.00;97369.78;5027865;28;20041;-63
2022/12/03 00:56:05;;;;;;;35.25;15.82;;;;;;;1.13;100.00;97373.72;5026976;28;20120;-63
2022/12/03 00:58:32;;;;;;;32.00;16.20;;;;;;;1.11;100.00;97366.91;5026997;28;20115;-63
2022/12/03 01:00:58;;;;;;;30.58;15.70;;;;;;;1.06;100.00;97362.16;5026542;28;20137;-62
2022/12/03 01:03:25;;;;;;;33.85;15.48;;;;;;;1.06;100.00;97359.47;5027283;28;20166;-62
2022/12/03 01:05:51;;;;;;;28.80;14.60;;;;;;;1.03;100.00;97362.53;5026996;28;20121;-63
2022/12/03 01:08:18;;;;;;;27.38;14.88;;;;;;;1.01;100.00;97354.75;5012113;28;20046;-62
2022/12/03 01:10:44;;;;;;;28.02;14.23;;;;;;;1.07;100.00;97357.66;5015513;28;20092;-62
2022/12/03 01:13:11;;;;;;;25.02;13.82;;;;;;;1.08;100.00;97359.28;5026355;28;20095;-62
2022/12/03 01:15:37;;;;;;;31.13;14.52;;;;;;;1.14;100.00;97355.88;5027112;28;20401;-62
2022/12/03 01:18:04;;;;;;;27.02;14.38;;;;;;;1.15;100.00;97360.19;5022954;28;20045;-62
2022/12/03 01:20:30;;;;;;;30.20;14.55;;;;;;;1.10;100.00;97363.41;5025738;28;20567;-62
2022/12/03 01:22:57;;;;;;;26.83;14.73;;;;;;;1.07;100.00;97371.78;5025126;28;20128;-62
2022/12/03 01:25:23;;;;;;;31.52;15.48;;;;;;;1.11;100.00;97367.72;5008846;28;20077;-61
2022/12/03 01:27:50;;;;;;;30.40;13.93;;;;;;;1.09;100.00;97368.94;5023420;28;20440;-62
2022/12/03 01:30:16;;;;;;;25.42;13.00;;;;;;;1.06;100.00;97362.16;5026312;28;20072;-62
2022/12/03 01:32:43;;;;;;;29.55;14.80;;;;;;;1.10;100.00;97365.28;5026277;28;20421;-61
2022/12/03 01:35:09;;;;;;;25.25;13.07;;;;;;;1.00;100.00;97366.41;5026893;28;20412;-62
2022/12/03 01:37:36;;;;;;;28.98;13.45;;;;;;;1.04;100.00;97365.00;5016813;28;20073;-62
2022/12/03 01:40:04;;;;;;;27.83;14.05;;;;;;;1.04;100.00;97369.53;5006587;28;20052;-61
2022/12/03 01:42:34;;;;;;;28.50;13.77;;;;;;;0.99;100.00;97367.41;5019286;28;20706;-62
2022/12/03 01:45:02;;;;;;;27.92;13.30;;;;;;;1.02;100.00;97366.22;5027038;28;20037;-62
2022/12/03 01:47:33;;;;;;;27.48;12.68;;;;;;;1.03;100.00;97370.53;5026103;28;20115;-61
2022/12/03 01:50:18;;;;;;;33.63;14.52;;;;;;;1.05;100.00;97373.84;5026839;28;20473;-62
2022/12/03 01:52:45;;;;;;;29.05;13.55;;;;;;;1.03;100.00;97368.69;5025787;28;20202;-62
2022/12/03 01:55:18;;;;;;;25.92;15.23;;;;;;;0.99;100.00;97367.41;5025839;28;20420;-62
2022/12/03 01:57:51;;;;;;;25.67;13.02;;;;;;;1.02;100.00;97368.88;5026450;28;20042;-62
2022/12/03 02:00:21;;;;;;;26.83;13.65;;;;;;;0.96;100.00;97375.00;5026188;28;20444;-62
2022/12/03 02:02:51;;;;;;;24.92;13.43;;;;;;;0.95;100.00;97376.81;5026208;28;20050;-62
2022/12/03 02:05:22;;;;;;;27.55;14.20;;;;;;;0.97;100.00;97377.47;5026086;28;20045;-62
2022/12/03 02:07:48;;;;;;;25.33;13.05;;;;;;;0.99;100.00;97375.41;5015010;28;20041;-63
2022/12/03 02:10:17;;;;;;;27.83;13.52;;;;;;;1.06;100.00;97370.16;5024445;28;20049;-63
2022/12/03 02:13:06;;;;;;;32.50;14.75;;;;;;;1.21;100.00;97370.06;5025481;28;20488;-62
2022/12/03 02:15:34;;;;;;;31.15;14.52;;;;;;;0.99;100.00;97370.09;5026061;28;20041;-62
2022/12/03 02:18:01;;;;;;;27.95;13.13;;;;;;;0.96;100.00;97367.78;5023503;28;20045;-63
2022/12/03 02:20:31;;;;;;;30.13;12.80;;;;;;;0.98;100.00;97372.94;5026037;28;20045;-62
2022/12/03 02:23:40;;;;;;;26.27;13.73;;;;;;;1.18;100.00;97373.13;5017708;28;20091;-62
2022/12/03 02:26:07;;;;;;;27.02;13.50;;;;;;;1.06;100.00;97377.34;5002610;28;21249;-62
2022/12/03 02:28:33;;;;;;;28.77;13.52;;;;;;;1.09;100.00;97377.78;5014654;28;20092;-62
2022/12/03 02:31:00;;;;;;;25.48;14.23;;;;;;;1.01;100.00;97369.91;5019517;28;20080;-62
2022/12/03 02:33:27;;;;;;;24.30;12.63;;;;;;;0.99;100.00;97366.63;5025882;28;20049;-62
2022/12/03 02:35:53;;;;;;;25.42;13.80;;;;;;;1.05;100.00;97368.50;5025488;28;20116;-62
2022/12/03 02:38:28;;;;;;;23.55;12.43;;;;;;;0.96;100.00;97367.00;5009207;28;20054;-63
2022/12/03 02:40:59;;;;;;;26.90;12.88;;;;;;;1.20;100.00;97375.59;5018889;28;20350;-62
2022/12/03 02:43:26;;;;;;;30.27;14.98;;;;;;;1.27;100.00;97368.50;5025848;28;20080;-63
2022/12/03 02:45:55;;;;;;;27.13;13.57;;;;;;;1.12;100.00;97364.06;5013605;28;20041;-60
2022/12/03 02:48:34;;;;;;;27.70;14.07;;;;;;;1.13;100.00;97356.88;5026314;28;20107;-62
2022/12/03 02:51:04;;;;;;;24.92;13.20;;;;;;;1.12;100.00;97353.41;5020529;28;20501;-60
2022/12/03 02:53:43;;;;;;;25.02;12.40;;;;;;;1.19;100.00;97368.63;5025549;28;20029;-61
2022/12/03 02:56:14;;;;;;;25.50;12.48;;;;;;;1.23;100.00;97369.88;5025925;28;20443;-63
2022/12/03 02:58:43;;;;;;;23.58;11.95;;;;;;;1.24;100.00;97367.03;5025919;28;20060;-60
2022/12/03 03:01:10;;;;;;;21.25;12.63;;;;;;;1.16;100.00;97369.84;5024447;28;20254;-62
2022/12/03 03:03:37;;;;;;;20.55;11.25;;;;;;;1.19;100.00;97365.97;5025417;28;20046;-61
2022/12/03 03:06:07;;;;;;;22.67;12.40;;;;;;;1.17;100.00;97366.13;5025478;28;20099;-62
2022/12/03 03:08:35;;;;;;;21.85;11.63;;;;;;;1.15;100.00;97366.34;5008544;28;20042;-61
2022/12/03 03:11:02;;;;;;;22.73;11.80;;;;;;;1.13;100.00;97365.72;5016090;28;20042;-62
2022/12/03 03:13:31;;;;;;;22.65;12.13;;;;;;;1.03;100.00;97367.84;5025463;28;20050;-62
2022/12/03 03:15:58;;;;;;;22.90;13.13;;;;;;;1.01;100.00;97369.91;5024864;28;20505;-62
2022/12/03 03:18:24;;;;;;;20.85;12.15;;;;;;;1.05;100.00;97371.16;5022246;28;20045;-62
2022/12/03 03:20:52;;;;;;;19.65;10.88;;;;;;;1.03;100.00;97362.53;5011663;28;20553;-63
2022/12/03 03:23:21;;;;;;;22.15;12.32;;;;;;;1.20;100.00;97372.94;5008892;28;20515;-62
2022/12/03 03:25:56;;;;;;;22.40;12.75;;;;;;;1.15;100.00;97373.53;5013863;28;20053;-62
2022/12/03 03:28:24;;;;;;;23.75;12.75;;;;;;;1.19;100.00;97369.47;5028687;28;20054;-63
2022/12/03 03:30:51;;;;;;;20.77;12.15;;;;;;;1.09;100.00;97369.78;5028448;28;20505;-62
2022/12/03 03:33:18;;;;;;;22.30;13.18;;;;;;;1.07;100.00;97370.97;5029317;28;20072;-61
2022/12/03 03:35:47;;;;;;;24.58;12.73;;;;;;;1.09;100.00;97371.59;5028676;28;20459;-61
2022/12/03 03:38:17;;;;;;;25.70;12.88;;;;;;;1.13;100.00;97362.22;5014760;28;20113;-62
2022/12/03 03:40:43;;;;;;;23.67;12.13;;;;;;;1.20;100.00;97365.75;5011707;28;20446;-62
2022/12/03 03:43:11;;;;;;;22.83;11.63;;;;;;;1.12;100.00;97358.72;5028834;28;20493;-62
2022/12/03 03:45:38;;;;;;;23.35;12.50;;;;;;;0.98;100.00;97360.44;5028453;28;20294;-62
2022/12/03 03:48:06;;;;;;;25.77;12.25;;;;;;;0.99;100.00;97364.75;5028914;28;20429;-62
2022/12/03 03:50:33;;;;;;;20.60;11.75;;;;;;;0.97;100.00;97369.47;5028745;28;20052;-62
2022/12/03 03:53:01;;;;;;;24.50;12.02;;;;;;;0.99;100.00;97369.28;5028462;28;20051;-62
2022/12/03 03:55:29;;;;;;;23.60;12.02;;;;;;;0.94;100.00;97367.19;5028730;28;20128;-62
2022/12/03 03:57:55;;;;;;;23.45;12.68;;;;;;;1.01;100.00;97359.22;5015590;28;20054;-62
2022/12/03 04:00:22;;;;;;;25.67;13.00;;;;;;;0.96;100.00;97356.31;5008219;28;20310;-61
2022/12/03 04:02:49;;;;;;;23.20;12.75;;;;;;;0.94;100.00;97353.00;5027582;28;20042;-62
2022/12/03 04:05:18;;;;;;;27.45;12.32;;;;;;;0.97;100.00;97352.63;5028149;28;20056;-62
2022/12/03 04:07:45;;;;;;;23.35;12.90;;;;;;;0.96;100.00;97357.13;5017677;28;20527;-63
2022/12/03 04:13:00;;;;;;;25.85;13.38;;;;;;;1.03;100.00;97351.84;5008663;28;20070;-62
2022/12/03 04:15:27;;;;;;;22.33;11.60;;;;;;;1.05;100.00;97352.50;5008045;28;20070;-62
2022/12/03 04:20:40;;;;;;;25.85;12.45;;;;;;;1.07;100.00;97347.78;5027634;28;20049;-60
2022/12/03 04:23:06;;;;;;;25.95;12.27;;;;;;;1.11;100.00;97353.59;5027677;28;20080;-61
2022/12/03 04:36:43;;;;;;;23.50;12.98;;;;;;;1.04;100.00;97337.53;5025467;28;20479;-63
2022/12/03 04:39:10;;;;;;;25.23;13.13;;;;;;;1.03;100.00;97344.69;5007771;28;20092;-62
2022/12/03 04:41:36;;;;;;;22.35;12.40;;;;;;;0.99;100.00;97343.44;5014390;28;20118;-62
2022/12/03 04:46:48;;;;;;;24.55;13.90;;;;;;;0.93;100.00;97340.69;5027491;28;20038;-62
2022/12/03 04:49:14;;;;;;;29.05;13.15;;;;;;;0.96;100.00;97337.66;5028519;28;20054;-62
2022/12/03 04:51:41;;;;;;;28.63;13.43;;;;;;;0.97;100.00;97341.97;5026204;28;20132;-62
2022/12/03 04:54:07;;;;;;;29.58;14.27;;;;;;;0.98;100.00;97341.78;5027933;28;20663;-62
2022/12/03 04:56:34;;;;;;;27.42;14.05;;;;;;;0.98;100.00;97348.94;5027243;28;20399;-62
2022/12/03 04:59:00;;;;;;;27.15;13.57;;;;;;;0.97;100.00;97349.97;5027651;28;20041;-62
2022/12/03 05:01:27;;;;;;;26.98;14.07;;;;;;;0.98;100.00;97339.13;5027005;28;20042;-62
2022/12/03 05:03:53;;;;;;;28.15;13.90;;;;;;;1.01;100.00;97340.56;5026827;28;20037;-62
2022/12/03 05:06:20;;;;;;;27.08;14.63;;;;;;;1.06;100.00;97332.00;5026737;28;20041;-63
2022/12/03 05:08:47;;;;;;;26.73;14.10;;;;;;;0.96;100.00;97329.66;5008403;28;20042;-62
2022/12/03 05:11:13;;;;;;;35.20;14.38;;;;;;;0.91;100.00;97332.88;5019507;28;20382;-61
2022/12/03 05:13:40;;;;;;;27.17;13.68;;;;;;;0.89;100.00;97338.41;5026684;28;20312;-62
2022/12/03 05:16:09;;;;;;;31.63;14.35;;;;;;;0.93;100.00;97340.69;5027331;28;20038;-62
2022/12/03 05:18:35;;;;;;;29.42;13.60;;;;;;;0.93;100.00;97338.88;5025727;28;20049;-62
2022/12/03 05:21:02;;;;;;;27.48;13.70;;;;;;;0.90;100.00;97333.91;5018273;28;20136;-61
2022/12/03 05:23:28;;;;;;;28.88;13.93;;;;;;;0.93;100.00;97344.19;5027189;28;20398;-62
2022/12/03 05:25:55;;;;;;;34.03;13.30;;;;;;;0.94;100.00;97345.00;5026827;28;20049;-62
2022/12/03 05:28:23;;;;;;;29.38;14.05;;;;;;;1.02;100.00;97339.53;5026525;28;20045;-61
2022/12/03 05:30:50;;;;;;;32.33;14.27;;;;;;;1.03;100.00;97338.53;5025218;28;20504;-61
2022/12/03 05:33:17;;;;;;;29.17;13.73;;;;;;;1.04;100.00;97332.19;5006512;28;20514;-61
2022/12/03 05:35:43;;;;;;;36.92;15.23;;;;;;;1.02;100.00;97318.22;5006758;28;20049;-59
2022/12/03 05:38:10;;;;;;;30.95;13.50;;;;;;;0.95;100.00;97315.50;5009488;28;20053;-62
2022/12/03 05:40:36;;;;;;;28.98;14.35;;;;;;;0.99;100.00;97307.94;5006650;28;20054;-61
2022/12/03 05:43:03;;;;;;;29.95;14.38;;;;;;;0.98;100.00;97306.28;5022208;28;20072;-62
2022/12/03 05:45:32;;;;;;;29.83;14.50;;;;;;;1.01;100.00;97306.75;5027740;28;20053;-62
2022/12/03 05:48:00;;;;;;;29.42;14.68;;;;;;;0.94;100.00;97313.00;5026106;28;20069;-62
2022/12/03 05:50:29;;;;;;;29.55;15.00;;;;;;;0.90;100.00;97312.59;5026372;28;20051;-62
2022/12/03 05:52:57;;;;;;;27.55;13.95;;;;;;;0.93;100.00;97317.53;5026427;28;20466;-62
2022/12/03 05:55:24;;;;;;;28.33;14.25;;;;;;;0.96;100.00;97329.66;5026377;28;20472;-62
2022/12/03 05:57:50;;;;;;;33.92;15.48;;;;;;;0.99;100.00;97321.28;5026264;28;20041;-62
2022/12/03 06:00:25;;;;;;;28.23;13.73;;;;;;;0.95;100.00;97320.81;5026139;28;20132;-62
2022/12/03 06:02:52;;;;;;;29.10;13.85;;;;;;;1.00;100.00;97323.72;5025492;28;20564;-61
2022/12/03 06:05:20;;;;;;;28.48;13.45;;;;;;;0.99;100.00;97326.63;5026173;28;20095;-62
2022/12/03 06:07:49;;;;;;;29.35;13.68;;;;;;;1.01;100.00;97332.56;5015083;28;20132;-58
2022/12/03 06:10:21;;;;;;;25.65;13.90;;;;;;;1.02;100.00;97327.06;5011246;28;20457;-59
2022/12/03 06:12:48;;;;;;;29.55;14.80;;;;;;;0.97;100.00;97326.81;5025865;28;20120;-59
2022/12/03 06:15:15;;;;;;;26.95;13.15;;;;;;;0.92;100.00;97318.53;5008407;28;20497;-55
2022/12/03 06:17:42;;;;;;;32.85;14.93;;;;;;;0.93;100.00;97316.69;5017146;28;20065;-59
2022/12/03 06:20:13;;;;;;;36.05;16.23;;;;;;;0.89;100.00;97314.41;5026597;28;20045;-56
2022/12/03 06:22:39;;;;;;;32.08;14.85;;;;;;;0.98;100.00;97330.28;5025876;28;20099;-56
2022/12/03 06:25:21;;;;;;;34.25;14.95;;;;;;;0.99;100.00;97329.28;5003464;28;20057;-57
2022/12/03 06:27:47;;;;;;;31.52;14.98;;;;;;;0.85;100.00;97341.66;5025321;28;20057;-58
2022/12/03 06:30:14;;;;;;;29.88;13.60;;;;;;;0.90;100.00;97334.75;5025371;28;20049;-58
2022/12/03 06:32:40;;;;;;;30.95;15.02;;;;;;;0.90;100.00;97340.06;5025585;28;20053;-57
2022/12/03 06:35:07;;;;;;;32.53;14.60;;;;;;;0.93;100.00;97346.03;5025927;28;20057;-55
2022/12/03 06:37:34;;;;;;;35.00;15.77;;;;;;;0.99;100.00;97345.28;5025523;28;20302;-57
2022/12/03 06:40:00;;;;;;;35.63;16.08;;;;;;;1.00;100.00;97350.41;5025766;28;20046;-57
2022/12/03 06:42:27;;;;;;;31.65;14.68;;;;;;;0.95;100.00;97352.00;5024921;28;20500;-57
2022/12/03 06:44:53;;;;;;;32.47;14.35;;;;;;;0.98;100.00;97351.59;5025975;28;20072;-57
2022/12/03 06:47:20;;;;;;;32.60;15.68;;;;;;;0.98;100.00;97356.94;5025907;28;20509;-59
2022/12/03 06:49:47;;;;;;;35.30;16.80;;;;;;;0.96;100.00;97353.66;5026604;28;20120;-59
2022/12/03 06:52:13;;;;;;;36.08;16.63;;;;;;;1.00;100.00;97346.94;5024985;28;20481;-54
2022/12/03 06:54:40;;;;;;;31.27;15.98;;;;;;;0.95;100.00;97349.34;5025597;28;20045;-56
2022/12/03 06:57:06;;;;;;;37.58;15.38;;;;;;;0.95;100.00;97354.69;5028069;28;20112;-58
2022/12/03 06:59:35;;;;;;;34.05;14.95;;;;;;;0.90;100.00;97349.91;5030061;28;20452;-59
2022/12/03 07:02:02;;;;;;;31.35;15.20;;;;;;;0.89;100.00;97354.41;5029833;28;20092;-58
2022/12/03 07:04:29;;;;;;;33.67;15.27;;;;;;;0.89;100.00;97356.25;5029589;28;20048;-58
2022/12/03 07:06:55;;;;;;;39.40;16.80;;;;;;;0.93;100.00;97348.69;5025720;28;20045;-58
2022/12/03 07:09:22;;;;;;;34.13;16.08;;;;;;;0.93;100.00;97349.53;5010223;28;20441;-57
2022/12/03 07:11:48;;;;;;;34.58;14.95;;;;;;;0.87;100.00;97347.63;5026190;28;20038;-58
2022/12/03 07:14:15;;;;;;;40.67;16.42;;;;;;;0.85;100.00;97339.81;5029661;28;20045;-59
2022/12/03 07:16:42;;;;;;;41.15;17.35;;;;;;;0.90;100.00;97341.91;5029544;28;20431;-55
2022/12/03 07:19:09;;;;;;;42.35;17.48;;;;;;;0.93;100.00;97340.69;5023145;28;20049;-58
2022/12/03 07:21:36;;;;;;;40.55;18.10;;;;;;;0.93;100.00;97335.38;5025174;28;20409;-58
2022/12/03 07:24:04;;;;;;;41.38;16.23;;;;;;;0.94;100.00;97329.00;5026973;28;20501;-58
2022/12/03 07:26:31;;;;;;;38.65;17.90;;;;;;;0.93;100.00;97330.88;5028991;28;20512;-58
2022/12/03 07:28:57;;;;;;;37.30;16.83;;;;;;;0.92;100.00;97337.19;5028737;28;20311;-57
2022/12/03 07:31:24;;;;;;;36.78;15.07;;;;;;;0.95;100.00;97336.00;5028412;28;20100;-59
2022/12/03 07:33:50;;;;;;;36.65;15.75;;;;;;;1.03;100.00;97339.34;5028793;28;20371;-56
2022/12/03 07:36:17;;;;;;;40.75;16.52;;;;;;;0.99;100.00;97342.63;5028886;28;20095;-58
2022/12/03 07:38:43;;;;;;;39.90;16.30;;;;;;;0.99;100.00;97340.75;5010446;28;20271;-59
2022/12/03 07:41:10;;;;;;;35.90;14.90;;;;;;;0.97;100.00;97340.13;5013980;28;20497;-58
2022/12/03 07:43:36;;;;;;;42.92;17.45;;;;;;;0.99;100.00;97337.28;5028413;28;20043;-56
2022/12/03 07:46:03;;;;;;;36.60;15.90;;;;;;;1.01;100.00;97336.06;5029020;28;20044;-58
2022/12/03 07:48:30;;;;;;;44.60;17.42;;;;;;;1.06;100.00;97327.47;5026419;28;20053;-59
2022/12/03 07:50:57;;;;;;;41.10;16.88;;;;;;;1.03;100.00;97343.84;5020379;28;20622;-58
2022/12/03 07:53:23;;;;;;;36.88;16.35;;;;;;;0.98;100.00;97340.94;5025085;28;20125;-60
2022/12/03 07:55:50;;;;;;;36.08;15.13;;;;;;;1.03;100.00;97336.69;5026853;28;20080;-59
2022/12/03 07:58:16;;;;;;;42.03;16.02;;;;;;;1.05;100.00;97333.84;5020295;28;20096;-57
2022/12/03 08:00:43;;;;;;;41.10;17.02;;;;;;;1.06;100.00;97338.16;5026227;28;20505;-57
2022/12/03 08:03:10;;;;;;;40.88;16.83;;;;;;;1.01;100.00;97330.75;5024353;28;20365;-58
2022/12/03 08:05:36;;;;;;;38.08;15.68;;;;;;;1.04;100.00;97329.53;5019310;28;20069;-58
2022/12/03 08:08:03;;;;;;;43.72;18.77;;;;;;;0.99;100.00;97327.44;5021531;28;20080;-58
2022/12/03 08:10:29;;;;;;;41.95;17.85;;;;;;;1.04;100.00;97329.53;5014679;28;20045;-55
2022/12/03 08:12:58;;;;;;;37.00;16.10;;;;;;;0.99;100.00;97329.28;5019952;28;20041;-59
2022/12/03 08:15:27;;;;;;;42.60;16.65;;;;;;;1.02;100.00;97323.53;5026360;28;20049;-59
2022/12/03 08:18:06;;;;;;;42.50;17.60;;;;;;;1.14;100.00;97340.69;5025182;28;20063;-59
2022/12/03 08:20:37;;;;;;;45.22;18.90;;;;;;;1.10;100.00;97342.09;5026061;28;20053;-60
2022/12/03 08:23:14;;;;;;;40.58;16.80;;;;;;;1.15;100.00;97339.66;5017290;28;20046;-60
2022/12/03 08:25:41;;;;;;;47.17;17.60;;;;;;;1.12;100.00;97337.41;5026307;28;20049;-58
2022/12/03 08:28:19;;;;;;;42.72;17.30;;;;;;;1.11;100.00;97337.59;5025679;28;20072;-60
2022/12/03 08:31:02;;;;;;;38.78;15.52;;;;;;;1.04;100.00;97338.34;5023314;28;20064;-61
2022/12/03 08:33:35;;;;;;;42.30;17.83;;;;;;;1.02;100.00;97332.38;5013765;28;20600;-59
2022/12/03 08:36:20;;;;;;;41.90;16.98;;;;;;;1.12;100.00;97337.41;5025861;28;20046;-58
2022/12/03 08:38:55;;;;;;;42.05;18.63;;;;;;;1.00;100.00;97333.59;5018840;28;20057;-59
2022/12/03 08:44:12;;;;;;;44.22;18.55;;;;;;;0.99;100.00;97334.63;5026103;28;20038;-59
2022/12/03 08:46:39;;;;;;;46.78;18.33;;;;;;;1.07;100.00;97331.00;5025725;28;20053;-60
2022/12/03 08:49:05;;;;;;;57.25;20.95;;;;;;;1.07;100.00;97325.66;5026777;28;20049;-58
2022/12/03 08:51:32;;;;;;;39.70;16.75;;;;;;;1.08;100.00;97321.97;5023996;28;20323;-59
2022/12/03 08:54:06;;;;;;;41.05;17.00;;;;;;;1.03;100.00;97317.19;5025518;28;20107;-57
2022/12/03 08:56:35;;;;;;;45.67;18.20;;;;;;;1.01;100.00;97321.91;5025005;28;20902;-60
2022/12/03 08:59:31;;;;;;;48.92;18.70;;;;;;;1.07;100.00;97322.97;5022072;28;20045;-60
2022/12/03 09:01:58;;;;;;;52.20;19.33;;;;;;;1.10;100.00;97328.75;5023914;28;20099;-59
2022/12/03 09:04:45;;;;;;;46.72;19.42;;;;;;;1.13;100.00;97325.69;5024972;28;20505;-60
2022/12/03 09:07:11;;;;;;;45.42;18.35;;;;;;;1.11;100.00;97326.91;5023866;28;20045;-58
2022/12/03 09:09:38;;;;;;;49.08;19.13;;;;;;;1.05;100.00;97325.84;5016418;28;20045;-60
2022/12/03 09:12:04;;;;;;;51.97;20.60;;;;;;;1.00;100.00;97322.94;5014961;28;20161;-60
2022/12/03 09:14:31;;;;;;;53.95;19.70;;;;;;;1.06;100.00;97332.81;5019734;28;20049;-60
2022/12/03 09:16:57;;;;;;;46.80;20.65;;;;;;;1.08;100.00;97324.63;5024762;28;20095;-60
2022/12/03 09:19:26;;;;;;;50.10;20.88;;;;;;;1.22;100.00;97328.25;5025795;28;20045;-59
2022/12/03 09:21:53;;;;;;;49.25;19.75;;;;;;;1.30;100.00;97330.75;5032730;28;20056;-60
2022/12/03 09:24:20;;;;;;;68.57;24.85;;;;;;;1.33;100.00;97326.88;5021797;28;20509;-61
2022/12/03 09:26:46;;;;;;;68.95;27.10;;;;;;;1.26;100.00;97329.50;5035183;28;20037;-59
2022/12/03 09:29:13;;;;;;;66.72;26.95;;;;;;;1.26;100.00;97326.84;5024464;28;20038;-59
2022/12/03 09:31:40;;;;;;;72.45;27.60;;;;;;;1.29;100.00;97327.25;5024797;28;20072;-61
2022/12/03 09:34:07;;;;;;;78.43;28.35;;;;;;;1.19;100.00;97332.13;5024723;28;20049;-60
2022/12/03 09:36:34;;;;;;;84.85;29.80;;;;;;;1.19;100.00;97333.94;5024368;28;20512;-61
2022/12/03 09:39:00;;;;;;;85.05;30.77;;;;;;;1.20;100.00;97328.44;5014606;28;20069;-60
2022/12/03 09:41:27;;;;;;;128.15;37.00;;;;;;;1.24;100.00;97324.34;5037469;28;20041;-61
2022/12/03 09:43:55;;;;;;;131.43;37.67;;;;;;;1.20;100.00;97322.25;5025072;28;20061;-62
2022/12/03 09:46:34;;;;;;;84.88;30.42;;;;;;;1.23;100.00;97327.22;5024105;28;20053;-60
2022/12/03 09:49:02;;;;;;;90.35;31.40;;;;;;;1.29;100.00;97323.78;5025817;28;20505;-61
2022/12/03 09:51:32;;;;;;;88.78;30.63;;;;;;;1.35;100.00;97315.00;5024213;28;20131;-61
2022/12/03 09:54:01;;;;;;;55.22;22.65;;;;;;;1.35;100.00;97308.81;5021646;28;20041;-61
2022/12/03 09:56:28;;;;;;;49.78;21.20;;;;;;;1.34;100.00;97292.00;5032473;28;20061;-59
2022/12/03 09:58:55;;;;;;;48.97;19.90;;;;;;;1.40;100.00;97279.75;4987895;28;20557;-54
2022/12/03 10:01:22;;;;;;;49.67;20.83;;;;;;;1.45;100.00;97279.13;4989904;28;20061;-53
2022/12/03 10:03:53;;;;;;;;;;;;;;;1.49;100.00;97273.22;5024743;28;20077;-53
2022/12/03 10:06:22;;;;;;;43.10;18.73;;;;;;;1.55;100.00;97288.44;4985551;28;19932;-58
2022/12/03 10:08:52;;;;;;;39.92;17.83;;;;;;;1.62;100.00;97283.13;4978484;28;20058;-60
2022/12/03 10:11:22;;;;;;;39.95;18.23;;;;;;;1.68;100.00;97282.38;5019603;28;20132;-60
2022/12/03 10:13:51;;;;;;;34.38;16.85;;;;;;;1.64;100.00;97285.63;5024555;28;20068;-59
2022/12/03 10:16:19;;;;;;;32.63;15.73;;;;;;;1.79;100.00;97281.00;5023878;28;20045;-59
2022/12/03 10:18:50;;;;;;;36.33;16.08;;;;;;;1.82;100.00;97285.09;5024861;28;20067;-58
2022/12/03 10:21:18;;;;;;;34.50;15.55;;;;;;;1.83;100.00;97277.94;5023718;28;20099;-59
2022/12/03 10:23:46;;;;;;;39.55;16.83;;;;;;;1.96;100.00;97272.66;5023751;28;20065;-60
2022/12/03 10:26:37;;;;;;;37.55;14.48;;;;;;;2.01;100.00;97278.22;5024528;28;20111;-56
2022/12/03 10:29:18;;;;;;;31.75;15.00;;;;;;;1.82;100.00;97290.44;5024074;28;20122;-56
2022/12/03 10:31:53;;;;;;;30.15;14.25;;;;;;;1.77;100.00;97279.53;5019593;28;20419;-56
2022/12/03 10:34:34;;;;;;;32.80;14.02;;;;;;;1.79;100.00;97278.31;5023714;28;20045;-56
2022/12/03 10:37:09;;;;;;;25.42;12.18;;;;;;;1.73;100.00;97276.41;5023323;28;20037;-55
2022/12/03 10:40:04;;;;;;;30.55;13.82;;;;;;;1.73;100.00;97278.28;5035205;28;20073;-55
2022/12/03 10:42:32;;;;;;;29.48;13.70;;;;;;;1.77;100.00;97279.53;5022780;28;20046;-54
2022/12/03 10:45:17;;;;;;;28.52;12.10;;;;;;;1.83;100.00;97273.41;5013017;28;20128;-58
2022/12/03 10:48:01;;;;;;;25.85;12.32;;;;;;;1.90;100.00;97270.75;4999607;28;20041;-57
2022/12/03 10:50:28;;;;;;;26.95;13.30;;;;;;;1.81;100.00;97268.25;5028957;28;20572;-61
2022/12/03 10:52:55;;;;;;;25.35;11.18;;;;;;;1.85;100.00;97263.34;5030646;28;20041;-62
2022/12/03 10:55:22;;;;;;;26.33;11.43;;;;;;;1.80;100.00;97263.09;5029252;28;20088;-61
2022/12/03 10:57:48;;;;;;;26.33;12.35;;;;;;;1.82;100.00;97258.41;5013993;28;20069;-59
2022/12/03 11:00:17;;;;;;;25.52;13.38;;;;;;;1.80;100.00;97249.75;5018282;28;20056;-59
2022/12/03 11:02:46;;;;;;;26.73;13.10;;;;;;;1.79;100.00;97256.13;5014595;28;20041;-60
2022/12/03 11:05:28;;;;;;;27.77;13.35;;;;;;;1.63;100.00;97251.94;5018307;28;20054;-55
2022/12/03 11:07:55;;;;;;;24.65;11.93;;;;;;;1.67;100.00;97247.88;5021499;28;20509;-55
2022/12/03 11:10:22;;;;;;;28.55;13.50;;;;;;;1.60;100.00;97242.50;5019658;28;20087;-57
2022/12/03 11:13:26;;;;;;;25.77;13.15;;;;;;;1.67;100.00;97234.50;5014454;28;20078;-61
2022/12/03 11:15:53;;;;;;;24.58;12.88;;;;;;;1.69;100.00;97229.78;5018818;28;20042;-57
2022/12/03 11:18:34;;;;;;;28.30;12.52;;;;;;;1.73;100.00;97227.56;5017168;28;20050;-58
2022/12/03 11:21:07;;;;;;;25.92;12.77;;;;;;;1.72;100.00;97225.91;5004460;28;20097;-56
2022/12/03 11:23:43;;;;;;;25.20;12.20;;;;;;;1.70;100.00;97226.13;5018628;28;20061;-57
2022/12/03 11:26:37;;;;;;;25.38;11.90;;;;;;;1.81;100.00;97232.75;5023668;28;20116;-59
2022/12/03 11:29:11;;;;;;;24.77;12.88;;;;;;;1.77;100.00;97221.63;5011441;28;20069;-61
2022/12/03 11:31:41;;;;;;;25.08;11.88;;;;;;;1.56;100.00;97220.69;5024535;28;20556;-57
2022/12/03 11:34:30;;;;;;;24.05;11.70;;;;;;;1.60;100.00;97218.47;5023207;28;20637;-58
2022/12/03 11:37:10;;;;;;;25.02;12.13;;;;;;;1.65;100.00;97221.38;5018086;28;20177;-59
2022/12/03 11:39:49;;;;;;;24.55;12.10;;;;;;;1.46;100.00;97216.75;5005649;28;20071;-61
2022/12/03 11:42:25;;;;;;;27.48;12.48;;;;;;;1.51;100.00;97219.66;5006745;28;20046;-56
2022/12/03 11:45:04;;;;;;;24.38;11.65;;;;;;;1.59;100.00;97219.50;5028855;28;20076;-58
2022/12/03 11:47:35;;;;;;;24.98;12.52;;;;;;;1.55;100.00;97220.91;5029100;28;20041;-55
2022/12/03 11:50:18;;;;;;;;;;;;;;;1.42;100.00;97227.00;5023485;28;20049;-57